WIF6YL ENTC-ENKR
Flight info
| Callsign | WIF6YL |
|---|---|
| Flight time | N/A |
| Altitude | 23000 |
| Route | ERPUG DCT TINOS DCT VADLA |
| Aircraft | DH8D/M-SDFGRY/SB1 |
Departure
| Time | 2026-05-04 09:01 |
|---|---|
| Airport | Tromsø Airport (ENTC) |
Arrival
| Time | N/A |
|---|---|
| Airport | Kirkenes Airport, Høybuktmoen (ENKR) |
| Time | Latitude | Longitude | Altitude | Speed | Heading |
|---|---|---|---|---|---|
| 2026-05-04 08:25 | 69.67697 | 18.90741 | -15 ft | 0 kts | 285° |
| 2026-05-04 08:52 | 69.67699 | 18.90730 | -12 ft | 2 kts | 287° |
| 2026-05-04 08:52 | 69.67708 | 18.90689 | -13 ft | 1 kts | 349° |
| 2026-05-04 08:53 | 69.67705 | 18.90730 | -12 ft | 2 kts | 134° |
| 2026-05-04 08:54 | 69.67686 | 18.90896 | -10 ft | 0 kts | 111° |
| 2026-05-04 09:01 | 69.71232 | 19.02492 | 3361 ft | 236 kts | 81° |
| 2026-05-04 09:01 | 69.71468 | 19.07266 | 4311 ft | 240 kts | 83° |
| 2026-05-04 09:01 | 69.71726 | 19.11488 | 6034 ft | 215 kts | 81° |
| 2026-05-04 09:01 | 69.71684 | 19.15781 | 6906 ft | 232 kts | 101° |
| 2026-05-04 09:02 | 69.71010 | 19.20010 | 7874 ft | 238 kts | 131° |
| 2026-05-04 09:02 | 69.69637 | 19.22640 | 8878 ft | 243 kts | 161° |
| 2026-05-04 09:02 | 69.68045 | 19.24001 | 9937 ft | 247 kts | 164° |
| 2026-05-04 09:02 | 69.66425 | 19.25408 | 11053 ft | 249 kts | 164° |
| 2026-05-04 09:03 | 69.64790 | 19.26844 | 12102 ft | 253 kts | 164° |
| 2026-05-04 09:03 | 69.63110 | 19.28345 | 13196 ft | 256 kts | 164° |
| 2026-05-04 09:03 | 69.61445 | 19.29873 | 14261 ft | 260 kts | 164° |
| 2026-05-04 09:03 | 69.59728 | 19.31470 | 15329 ft | 263 kts | 165° |
| 2026-05-04 09:04 | 69.58015 | 19.33118 | 16347 ft | 268 kts | 165° |
| 2026-05-04 09:04 | 69.56272 | 19.34870 | 17408 ft | 271 kts | 164° |
| 2026-05-04 09:04 | 69.54512 | 19.36710 | 18471 ft | 274 kts | 164° |
| 2026-05-04 09:04 | 69.52749 | 19.38611 | 19496 ft | 278 kts | 164° |
| 2026-05-04 09:05 | 69.50925 | 19.40610 | 20491 ft | 283 kts | 164° |
| 2026-05-04 09:05 | 69.49120 | 19.42599 | 21486 ft | 287 kts | 164° |
| 2026-05-04 09:05 | 69.47250 | 19.44661 | 22446 ft | 292 kts | 164° |
| 2026-05-04 09:05 | 69.45378 | 19.46716 | 23434 ft | 296 kts | 164° |
| 2026-05-04 09:06 | 69.43449 | 19.48837 | 24369 ft | 301 kts | 164° |
| 2026-05-04 09:07 | 69.39902 | 19.80941 | 29201 ft | 368 kts | 27° |
| 2026-05-04 09:08 | 69.42178 | 19.84206 | 29799 ft | 372 kts | 24° |
| 2026-05-04 09:08 | 69.44074 | 19.86912 | 30266 ft | 374 kts | 25° |
| 2026-05-04 09:08 | 69.46320 | 19.90320 | 30402 ft | 373 kts | 27° |
| 2026-05-04 09:08 | 69.48608 | 19.93895 | 30279 ft | 376 kts | 27° |
| 2026-05-04 09:09 | 69.50878 | 19.97500 | 30258 ft | 375 kts | 28° |
| 2026-05-04 09:09 | 69.55270 | 20.05417 | 30192 ft | 378 kts | 39° |
| 2026-05-04 09:09 | 69.57100 | 20.10822 | 30179 ft | 378 kts | 50° |
| 2026-05-04 09:10 | 69.58598 | 20.16897 | 30182 ft | 377 kts | 59° |
| 2026-05-04 09:10 | 69.59592 | 20.22047 | 30129 ft | 378 kts | 64° |
| 2026-05-04 09:11 | 69.60405 | 20.27180 | 30138 ft | 377 kts | 68° |